| Date | Time | Temp. (oF) | Dew Point (oF) | Rel. Hum. (%) | Press. (in.) | Wind Dir. (deg.) | Wind Speed (mph) | Hourly Rainfall (i n.) |
|
|---|---|---|---|---|---|---|---|---|---|
| 1 | 08/19 | 24:00 | 69 | 59 | 71 | 30.20 | 310 | 0 | 0.00 |
| 2 | 08/18 | 23:00 | 72 | 58 | 62 | 30.18 | 310 | 1 | 0.00 |
| 3 | 08/18 | 22:00 | 73 | 57 | 59 | 30.15 | 310 | 2 | 0.00 |
| 4 | 08/18 | 21:00 | 74 | 57 | 56 | 30.10 | 300 | 2 | 0.00 |
| 5 | 08/18 | 20:00 | 77 | 57 | 51 | 30.10 | 270 | 2 | 0.00 |
| 6 | 08/18 | 19:00 | 79 | 56 | 47 | 30.11 | 20 | 4 | 0.00 |
| 7 | 08/18 | 18:00 | 81 | 58 | 47 | 30.11 | 310 | 7 | 0.00 |
| 8 | 08/18 | 17:00 | 82 | 60 | 49 | 30.09 | 330 | 6 | 0.00 |
| 9 | 08/18 | 16:00 | 83 | 62 | 50 | 30.07 | 270 | 11 | 0.00 |
| 10 | 08/18 | 15:00 | 83 | 62 | 50 | 30.05 | 270 | 6 | 0.00 |
| 11 | 08/18 | 14:00 | 84 | 60 | 45 | 30.05 | 10 | 9 | 0.00 |
| 12 | 08/18 | 13:00 | 84 | 60 | 46 | 30.05 | 350 | 4 | 0.00 |
| 13 | 08/18 | 12:00 | 83 | 63 | 53 | 30.06 | 290 | 7 | 0.00 |
| 14 | 08/18 | 11:00 | 80 | 64 | 60 | 30.06 | 310 | 7 | 0.00 |
| 15 | 08/18 | 10:00 | 76 | 64 | 67 | 30.06 | 330 | 6 | 0.00 |
| 16 | 08/18 | 09:00 | 75 | 64 | 71 | 30.06 | 330 | 6 | 0.00 |
| 17 | 08/18 | 08:00 | 69 | 64 | 86 | 30.08 | 110 | 0 | 0.00 |
| 18 | 08/18 | 07:00 | 69 | 64 | 87 | 30.04 | 110 | 0 | 0.00 |
| 19 | 08/18 | 06:00 | 71 | 64 | 79 | 30.06 | 110 | 0 | 0.00 |
| 20 | 08/18 | 05:00 | 72 | 64 | 78 | 30.03 | 110 | 0 | 0.00 |
| 21 | 08/18 | 04:00 | 74 | 65 | 76 | 30.01 | 110 | 0 | 0.00 |
| 22 | 08/18 | 03:00 | 74 | 67 | 79 | 30.01 | 110 | 0 | 0.00 |
| 23 | 08/18 | 02:00 | 77 | 67 | 72 | 30.00 | 110 | 2 | 0.00 |
| 24 | 08/18 | 01:00 | 77 | 69 | 77 | 30.02 | 110 | 0 | 0.00 |